Terminal Aerodrome Forecast
Issued by NWS Jackson, MS

Home | Current Version | Previous Version | Text Only | Print | Product List | Glossary On
Versions: 1 2 3 4 5 6 7 8 9 10 11 12 13 14 15 16
000
FTUS44 KMEG 211549 AAA
TAFTUP
TAF AMD
KTUP 211549Z 2116/2212 13007KT P6SM SCT250
     FM211800 16009G18KT P6SM SCT150 BKN250
     FM220600 16011KT P6SM BKN050
     FM220900 14011KT P6SM VCSH OVC025=

USA.gov is the U.S. government's official web portal to all federal, state and local government web resources and services.